Crown College, Minnesota
Current Conditions -  °F | °C
As of 11:53 AM on Friday 31 Oct 2014 (Local Time) from KFCM Reporting Station
Clear Clear  
Wind Chill: 25°   Ceiling: Unl
Heat Index: 34°   Visibility: 10mi
Dew Point: 18°   Wind: 12mph
Humidity: 52%   Direction: 350°N
Pressure: 30.56"   Gusts: NA
Location:  44.9069°N, 93.7466°W
Report Text: KFCM 311653Z 35010KT 10SM CLR 01/M08 A3056 RMK AO2 SLP359 T00111078
Loading
Personal Weather Stations






























Interactive Weather Map
Tropical Storm Tracking
New forecast layout! Learn more

10-Day Weather Forecast

Advertisements
Track Severe Weather on mobile